Time;durP1;ratioP1;P1;durP2;ratioP2;P2;SDS_P1;SDS_P2;PMS_P1;PMS_P2;Temp;Humidity;BMP_temperature;BMP_pressure;BME280_temperature;BME280_humidity;BME280_pressure;Samples;Min_cycle;Max_cycle;Signal;HPM_P1;HPM_P2
2023/11/08 00:01:35;;;;;;;6.35;1.50;;;9.40;99.90;;;;;;5125945;28;20030;-50
2023/11/08 00:04:00;;;;;;;6.25;1.38;;;9.40;99.90;;;;;;5125884;28;20241;-50
2023/11/08 00:06:26;;;;;;;7.65;1.40;;;9.40;99.90;;;;;;5124867;28;20109;-50
2023/11/08 00:08:52;;;;;;;8.75;1.60;;;9.40;99.90;;;;;;5126186;28;20082;-50
2023/11/08 00:11:23;;;;;;;8.38;1.60;;;9.40;99.90;;;;;;5125694;28;20108;-50
2023/11/08 00:13:49;;;;;;;8.50;1.48;;;9.30;99.90;;;;;;5125870;28;20026;-50
2023/11/08 00:16:17;;;;;;;5.13;1.30;;;9.30;99.90;;;;;;5126128;28;20215;-50
2023/11/08 00:18:45;;;;;;;5.65;1.23;;;9.30;99.90;;;;;;5126097;28;20024;-50
2023/11/08 00:21:11;;;;;;;5.80;1.15;;;9.40;99.90;;;;;;5126119;28;20177;-50
2023/11/08 00:23:39;;;;;;;7.60;1.30;;;9.30;99.90;;;;;;5126010;28;20023;-46
2023/11/08 00:26:06;;;;;;;6.13;1.13;;;9.40;99.90;;;;;;5125832;28;20032;-47
2023/11/08 00:28:31;;;;;;;8.82;1.80;;;9.50;99.90;;;;;;5125876;28;20065;-47
2023/11/08 00:30:57;;;;;;;7.55;1.50;;;9.60;99.90;;;;;;5124952;28;20035;-46
2023/11/08 00:33:24;;;;;;;7.55;1.85;;;9.60;99.90;;;;;;5124646;28;20106;-51
2023/11/08 00:35:52;;;;;;;7.22;1.60;;;9.60;99.90;;;;;;5125584;28;20020;-48
2023/11/08 00:38:18;;;;;;;7.18;1.58;;;9.70;99.90;;;;;;5125881;28;20034;-48
2023/11/08 00:40:43;;;;;;;10.23;1.52;;;9.70;99.90;;;;;;5125941;28;20016;-47
2023/11/08 00:43:10;;;;;;;8.25;1.48;;;9.70;99.90;;;;;;5125914;28;20099;-50
2023/11/08 00:45:36;;;;;;;7.57;2.10;;;9.80;99.90;;;;;;5126232;28;20027;-50
2023/11/08 00:48:01;;;;;;;9.77;1.30;;;9.80;99.90;;;;;;5124582;28;20032;-51
2023/11/08 00:50:29;;;;;;;8.05;2.25;;;9.80;99.90;;;;;;5107760;28;20054;-49
2023/11/08 00:52:58;;;;;;;11.55;2.30;;;9.80;99.90;;;;;;5125765;28;20027;-46
2023/11/08 00:55:24;;;;;;;9.23;2.08;;;9.90;99.90;;;;;;5125620;28;20124;-47
2023/11/08 00:57:50;;;;;;;12.90;2.95;;;9.80;99.90;;;;;;5125474;28;20028;-50
2023/11/08 01:00:16;;;;;;;9.75;2.72;;;9.90;99.90;;;;;;5125632;28;20106;-49
2023/11/08 01:02:42;;;;;;;10.93;2.83;;;9.90;99.90;;;;;;5124537;28;20116;-52
2023/11/08 01:05:09;;;;;;;9.07;1.90;;;9.90;99.90;;;;;;5126153;28;20020;-51
2023/11/08 01:07:36;;;;;;;8.43;2.80;;;9.90;99.90;;;;;;5128806;28;20115;-51
2023/11/08 01:10:02;;;;;;;12.70;2.88;;;9.90;99.90;;;;;;5129385;28;20024;-51
2023/11/08 01:12:28;;;;;;;12.57;2.25;;;10.00;99.90;;;;;;5129221;28;20088;-47
2023/11/08 01:14:53;;;;;;;10.18;2.03;;;10.00;99.90;;;;;;5129320;28;20023;-49
2023/11/08 01:17:19;;;;;;;8.52;2.00;;;10.00;99.90;;;;;;5128910;28;20035;-50
2023/11/08 01:19:45;;;;;;;9.10;1.30;;;10.00;99.90;;;;;;5128924;28;20313;-51
2023/11/08 01:22:11;;;;;;;9.68;1.73;;;10.00;99.90;;;;;;5129106;28;20285;-49
2023/11/08 01:24:41;;;;;;;11.07;2.53;;;10.00;99.90;;;;;;5129053;28;20038;-52
2023/11/08 01:27:07;;;;;;;11.70;2.25;;;10.00;99.90;;;;;;5129081;28;20023;-52
2023/11/08 01:29:32;;;;;;;12.93;2.17;;;10.10;99.90;;;;;;5129212;28;20032;-50
2023/11/08 01:31:58;;;;;;;12.82;2.13;;;10.10;99.90;;;;;;5128915;28;20093;-52
2023/11/08 01:34:24;;;;;;;9.32;2.17;;;10.00;99.90;;;;;;5128896;28;20031;-47
2023/11/08 01:36:50;;;;;;;8.05;1.90;;;9.90;99.90;;;;;;5128937;28;20039;-49
2023/11/08 01:39:17;;;;;;;11.15;2.42;;;9.90;99.90;;;;;;5127636;28;20073;-49
2023/11/08 01:41:49;;;;;;;10.00;1.90;;;9.90;99.90;;;;;;5127495;28;20027;-50
2023/11/08 01:44:18;;;;;;;9.32;1.67;;;9.80;99.90;;;;;;5128660;28;20088;-48
2023/11/08 01:46:44;;;;;;;5.10;1.17;;;9.70;99.90;;;;;;5127793;28;20316;-48
2023/11/08 01:49:09;;;;;;;8.00;1.90;;;9.70;99.90;;;;;;5127671;28;20035;-48
2023/11/08 01:51:35;;;;;;;11.50;2.60;;;9.60;99.90;;;;;;5127517;28;20043;-51
2023/11/08 01:54:01;;;;;;;16.50;2.95;;;9.70;99.90;;;;;;5128314;28;20031;-51
2023/11/08 01:56:26;;;;;;;7.53;1.52;;;9.70;99.90;;;;;;5128427;28;20299;-49
2023/11/08 01:58:52;;;;;;;14.02;2.67;;;9.60;99.90;;;;;;5110280;28;20034;-48
2023/11/08 02:01:20;;;;;;;6.75;1.60;;;9.60;99.90;;;;;;5127885;28;20068;-48
2023/11/08 02:03:46;;;;;;;6.30;1.40;;;9.60;99.90;;;;;;5127401;28;20088;-49
2023/11/08 02:06:13;;;;;;;5.03;1.27;;;9.50;99.90;;;;;;5128118;28;20036;-49
2023/11/08 02:08:39;;;;;;;5.32;1.40;;;9.50;99.90;;;;;;5110551;28;20027;-49
2023/11/08 02:11:05;;;;;;;6.03;1.65;;;9.50;99.90;;;;;;5126989;28;20352;-49
2023/11/08 02:13:33;;;;;;;4.13;0.88;;;9.50;99.90;;;;;;5128197;28;20038;-49
2023/11/08 02:15:59;;;;;;;3.42;1.30;;;9.40;99.90;;;;;;5126981;28;20035;-52
2023/11/08 02:18:25;;;;;;;6.05;1.48;;;9.50;99.90;;;;;;5128094;28;20320;-52
2023/11/08 02:20:52;;;;;;;7.63;1.65;;;9.40;99.90;;;;;;5128123;28;20027;-52
2023/11/08 02:23:17;;;;;;;5.75;1.40;;;9.40;99.90;;;;;;5126874;28;20054;-52
2023/11/08 02:25:43;;;;;;;5.80;1.30;;;9.40;99.90;;;;;;5127731;28;20062;-52
2023/11/08 02:28:09;;;;;;;8.93;1.40;;;9.50;99.90;;;;;;5127771;28;20038;-57
2023/11/08 02:30:35;;;;;;;4.97;1.17;;;9.50;99.90;;;;;;5127720;28;20031;-52
2023/11/08 02:33:00;;;;;;;11.30;1.70;;;9.50;99.90;;;;;;5127885;28;20015;-52
2023/11/08 02:35:26;;;;;;;6.38;1.30;;;9.50;99.90;;;;;;5126925;28;20054;-52
2023/11/08 02:37:52;;;;;;;15.65;2.78;;;9.60;99.90;;;;;;5126695;28;20100;-51
2023/11/08 02:40:18;;;;;;;9.35;1.63;;;9.60;99.90;;;;;;5127671;28;20215;-52
2023/11/08 02:42:44;;;;;;;13.95;1.88;;;9.70;99.90;;;;;;5126309;28;20094;-52
2023/11/08 02:45:10;;;;;;;8.85;1.70;;;9.70;99.90;;;;;;5127669;28;20035;-53
2023/11/08 02:47:36;;;;;;;8.13;1.58;;;9.70;99.90;;;;;;5127480;28;20177;-51
2023/11/08 02:50:02;;;;;;;10.82;2.03;;;9.70;99.90;;;;;;5127430;28;20270;-51
2023/11/08 02:52:28;;;;;;;8.98;1.50;;;9.70;99.90;;;;;;5127311;28;20019;-51
2023/11/08 02:54:54;;;;;;;7.47;1.50;;;9.70;99.90;;;;;;5127395;28;20019;-51
2023/11/08 02:57:19;;;;;;;7.45;1.60;;;9.60;99.90;;;;;;5127095;28;20094;-51
2023/11/08 02:59:46;;;;;;;6.20;1.50;;;9.60;99.90;;;;;;5126109;28;20319;-53
2023/11/08 03:02:11;;;;;;;6.30;1.20;;;9.60;99.90;;;;;;5126201;28;20273;-51
2023/11/08 03:04:38;;;;;;;8.30;1.35;;;9.50;99.90;;;;;;5127208;28;20035;-51
2023/11/08 03:07:04;;;;;;;8.80;1.60;;;9.40;99.90;;;;;;5126894;28;20058;-51
2023/11/08 03:09:30;;;;;;;7.90;2.05;;;9.40;99.90;;;;;;5126806;28;20038;-51
2023/11/08 03:11:58;;;;;;;11.45;1.60;;;9.40;99.90;;;;;;5126217;28;20149;-50
2023/11/08 03:14:25;;;;;;;5.30;1.23;;;9.40;99.90;;;;;;5126002;28;20048;-51
2023/11/08 03:16:51;;;;;;;7.78;1.63;;;9.40;99.90;;;;;;5126940;28;20068;-50
2023/11/08 03:19:19;;;;;;;4.28;1.15;;;9.40;99.90;;;;;;5126586;28;20051;-54
2023/11/08 03:21:48;;;;;;;7.22;1.35;;;9.50;99.90;;;;;;5126680;28;20050;-52
2023/11/08 03:24:14;;;;;;;9.20;2.40;;;9.40;99.90;;;;;;5125788;28;20150;-52
2023/11/08 03:26:41;;;;;;;5.93;1.35;;;9.50;99.90;;;;;;5125844;28;20031;-52
2023/11/08 03:29:07;;;;;;;7.05;1.17;;;9.40;99.90;;;;;;5126469;28;20039;-52
2023/11/08 03:31:33;;;;;;;2.83;1.10;;;9.50;99.90;;;;;;5126632;28;20030;-52
2023/11/08 03:33:59;;;;;;;3.30;1.65;;;9.40;99.90;;;;;;5125507;28;20047;-53
2023/11/08 03:36:25;;;;;;;4.68;1.00;;;9.50;99.90;;;;;;5126815;28;20296;-53
2023/11/08 03:38:51;;;;;;;7.13;1.27;;;9.50;99.90;;;;;;5125583;28;20069;-53
2023/11/08 03:41:17;;;;;;;2.58;0.88;;;9.50;99.90;;;;;;5126239;27;20035;-54
2023/11/08 03:43:43;;;;;;;2.53;1.17;;;9.40;99.90;;;;;;5126298;28;20059;-53
2023/11/08 03:46:09;;;;;;;4.85;1.10;;;9.50;99.90;;;;;;5126351;28;20272;-53
2023/11/08 03:48:36;;;;;;;9.45;1.83;;;9.50;99.90;;;;;;5126517;28;20062;-53
2023/11/08 03:51:03;;;;;;;6.60;1.55;;;9.40;99.90;;;;;;5126357;28;20064;-53
2023/11/08 03:53:30;;;;;;;5.90;1.30;;;9.50;99.90;;;;;;5126380;28;20060;-52
2023/11/08 03:55:56;;;;;;;4.75;1.10;;;9.50;99.90;;;;;;5126141;28;20030;-53
2023/11/08 03:58:21;;;;;;;4.15;1.13;;;9.50;99.90;;;;;;5126288;28;20058;-53
2023/11/08 04:00:47;;;;;;;3.40;1.25;;;9.50;99.90;;;;;;5126336;28;20078;-54
2023/11/08 04:03:13;;;;;;;4.50;1.17;;;9.50;99.90;;;;;;5125745;28;20205;-55
2023/11/08 04:05:38;;;;;;;3.72;1.10;;;9.60;99.90;;;;;;5126006;28;20032;-53
2023/11/08 04:08:06;;;;;;;6.07;1.17;;;9.60;99.90;;;;;;5125937;28;20198;-50
2023/11/08 04:10:33;;;;;;;3.35;1.00;;;9.60;99.90;;;;;;5126100;28;20090;-53
2023/11/08 04:12:58;;;;;;;5.60;0.90;;;9.60;99.90;;;;;;5126192;28;20047;-53
2023/11/08 04:15:24;;;;;;;6.95;1.35;;;9.60;99.90;;;;;;5125878;28;20084;-54
2023/11/08 04:17:50;;;;;;;2.58;1.00;;;9.60;99.90;;;;;;5126075;28;20284;-52
2023/11/08 04:20:16;;;;;;;5.90;0.93;;;9.60;99.90;;;;;;5125768;28;20038;-52
2023/11/08 04:22:42;;;;;;;6.78;1.33;;;9.70;99.90;;;;;;5126087;28;20083;-52
2023/11/08 04:25:09;;;;;;;5.32;1.15;;;9.70;99.90;;;;;;5126065;28;20031;-51
2023/11/08 04:27:35;;;;;;;2.97;1.05;;;9.70;99.90;;;;;;5125859;28;20043;-52
2023/11/08 04:30:01;;;;;;;6.22;1.10;;;9.70;99.90;;;;;;5126017;28;20212;-52
2023/11/08 04:32:27;;;;;;;1.58;0.85;;;9.70;99.90;;;;;;5125866;28;20239;-52
2023/11/08 04:34:53;;;;;;;3.45;1.02;;;9.70;99.90;;;;;;5125458;28;20028;-53
2023/11/08 04:37:18;;;;;;;3.45;1.20;;;9.70;99.90;;;;;;5125837;28;20042;-53
2023/11/08 04:39:49;;;;;;;5.05;1.20;;;9.70;99.90;;;;;;5125885;28;20028;-53
2023/11/08 04:42:15;;;;;;;3.70;0.85;;;9.70;99.90;;;;;;5130025;28;20028;-53
2023/11/08 04:44:47;;;;;;;4.43;1.08;;;9.70;99.90;;;;;;5129091;28;20282;-53
2023/11/08 04:47:18;;;;;;;4.97;1.00;;;9.70;99.90;;;;;;5130019;28;20047;-53
2023/11/08 04:49:45;;;;;;;2.97;1.10;;;9.70;99.90;;;;;;5130000;28;20023;-53
2023/11/08 04:52:10;;;;;;;4.50;1.73;;;9.70;99.90;;;;;;5128511;28;20035;-52
2023/11/08 04:54:37;;;;;;;1.48;0.70;;;9.80;99.90;;;;;;5129901;28;20028;-53
2023/11/08 04:57:02;;;;;;;1.15;0.80;;;9.80;99.90;;;;;;5129763;28;20091;-54
2023/11/08 04:59:29;;;;;;;4.78;0.98;;;9.80;99.90;;;;;;5129402;28;20031;-53
2023/11/08 05:01:54;;;;;;;2.08;0.63;;;9.90;99.90;;;;;;5128754;28;20042;-53
2023/11/08 05:04:20;;;;;;;2.70;0.77;;;9.90;99.90;;;;;;5129581;28;20230;-53
2023/11/08 05:06:45;;;;;;;1.65;0.70;;;9.90;99.90;;;;;;5129261;28;20209;-52
2023/11/08 05:09:15;;;;;;;2.05;0.90;;;9.90;99.90;;;;;;5129555;28;20039;-51
2023/11/08 05:11:41;;;;;;;1.20;0.50;;;9.90;99.90;;;;;;5129564;28;20132;-52
2023/11/08 05:14:07;;;;;;;0.50;0.50;;;10.00;99.90;;;;;;5129250;28;20039;-53
2023/11/08 05:16:33;;;;;;;0.77;0.60;;;10.00;99.90;;;;;;5129170;28;20107;-50
2023/11/08 05:18:58;;;;;;;0.50;0.50;;;10.10;99.90;;;;;;5129312;28;20054;-52
2023/11/08 05:21:26;;;;;;;2.60;0.70;;;10.10;99.90;;;;;;5129198;28;20027;-53
2023/11/08 05:23:52;;;;;;;0.50;0.50;;;10.10;99.90;;;;;;5128759;28;20020;-50
2023/11/08 05:26:19;;;;;;;2.63;0.60;;;10.20;99.90;;;;;;5129077;28;20027;-51
2023/11/08 05:28:44;;;;;;;2.28;0.50;;;10.20;99.90;;;;;;5129269;28;20320;-51
2023/11/08 05:31:11;;;;;;;0.65;0.50;;;10.20;99.90;;;;;;5128529;28;20035;-52
2023/11/08 05:33:40;;;;;;;1.75;0.60;;;10.30;99.90;;;;;;5111026;28;20034;-52
2023/11/08 05:36:06;;;;;;;0.50;0.50;;;10.30;99.90;;;;;;5128936;28;20051;-52
2023/11/08 05:38:32;;;;;;;0.60;0.60;;;10.30;99.90;;;;;;5129132;28;20273;-52
2023/11/08 05:40:58;;;;;;;1.52;0.80;;;10.40;99.90;;;;;;5128934;28;20090;-52
2023/11/08 05:43:25;;;;;;;1.02;0.57;;;10.40;99.90;;;;;;5128137;28;20023;-51
2023/11/08 05:45:51;;;;;;;1.50;1.00;;;10.40;99.90;;;;;;5128775;28;20032;-52
2023/11/08 05:48:17;;;;;;;2.47;0.85;;;10.40;99.90;;;;;;5128654;28;20035;-53
2023/11/08 05:50:44;;;;;;;1.13;0.73;;;10.40;99.90;;;;;;5128449;28;20042;-52
2023/11/08 05:53:14;;;;;;;1.95;0.75;;;10.40;99.90;;;;;;5128520;28;20027;-52
2023/11/08 05:55:40;;;;;;;0.93;0.60;;;10.50;99.90;;;;;;5128564;28;20027;-53
2023/11/08 05:58:06;;;;;;;1.80;1.08;;;10.50;99.90;;;;;;5127386;28;20055;-53
2023/11/08 06:00:33;;;;;;;3.28;1.38;;;10.50;99.90;;;;;;5128440;28;20277;-52
2023/11/08 06:02:59;;;;;;;3.65;1.02;;;10.50;99.90;;;;;;5128487;28;20091;-52
2023/11/08 06:05:28;;;;;;;2.63;1.02;;;10.40;99.90;;;;;;5127465;28;20027;-51
2023/11/08 06:07:55;;;;;;;1.30;0.95;;;10.40;99.90;;;;;;5128114;28;20110;-52
2023/11/08 06:10:21;;;;;;;1.13;0.70;;;10.40;99.90;;;;;;5128392;28;20031;-52
2023/11/08 06:12:46;;;;;;;0.75;0.60;;;10.40;99.90;;;;;;5127260;28;20032;-53
2023/11/08 06:15:14;;;;;;;1.35;0.75;;;10.40;99.90;;;;;;5128293;28;20106;-53
2023/11/08 06:17:39;;;;;;;0.65;0.60;;;10.40;99.90;;;;;;5128224;28;20298;-53
2023/11/08 06:20:08;;;;;;;0.57;0.57;;;10.40;99.90;;;;;;5126980;28;20036;-50
2023/11/08 06:22:34;;;;;;;0.60;0.60;;;10.50;99.90;;;;;;5127181;28;20030;-52
2023/11/08 06:25:00;;;;;;;1.02;0.60;;;10.50;99.90;;;;;;5109976;28;20027;-52
2023/11/08 06:27:26;;;;;;;0.85;0.50;;;10.50;99.90;;;;;;5128302;28;20027;-53
2023/11/08 06:29:51;;;;;;;0.70;0.70;;;10.50;99.90;;;;;;5127914;28;20167;-52
2023/11/08 06:32:20;;;;;;;0.50;0.50;;;10.60;99.90;;;;;;5127770;28;20037;-54
2023/11/08 06:34:46;;;;;;;0.57;0.57;;;10.60;99.90;;;;;;5127909;28;20028;-54
2023/11/08 06:37:13;;;;;;;0.80;0.80;;;10.60;99.90;;;;;;5127837;28;20076;-54
2023/11/08 06:39:39;;;;;;;1.92;0.77;;;10.60;99.90;;;;;;5127565;28;20085;-54
2023/11/08 06:42:05;;;;;;;2.33;0.88;;;10.70;99.90;;;;;;5126610;28;20297;-55
2023/11/08 06:44:31;;;;;;;1.58;0.77;;;10.70;99.90;;;;;;5127741;28;20027;-55
2023/11/08 06:46:57;;;;;;;2.42;0.98;;;10.80;99.90;;;;;;5109575;28;20035;-54
2023/11/08 06:49:23;;;;;;;2.67;1.10;;;10.90;99.90;;;;;;5127470;28;20039;-55
2023/11/08 06:51:48;;;;;;;4.00;0.90;;;10.90;99.90;;;;;;5126265;28;20023;-53
2023/11/08 06:54:14;;;;;;;4.07;0.90;;;11.00;99.90;;;;;;5127407;28;20061;-53
2023/11/08 06:56:40;;;;;;;5.75;1.00;;;11.20;99.90;;;;;;5127447;28;20035;-55
2023/11/08 06:59:05;;;;;;;4.55;1.23;;;11.40;99.90;;;;;;5126890;28;20094;-53
2023/11/08 07:01:34;;;;;;;3.35;1.05;;;11.50;99.90;;;;;;5126643;28;20027;-54
2023/11/08 07:04:00;;;;;;;4.03;1.27;;;11.70;99.90;;;;;;5126247;28;20031;-55
2023/11/08 07:06:26;;;;;;;6.25;1.10;;;11.50;99.90;;;;;;5126811;28;20100;-54
2023/11/08 07:08:51;;;;;;;9.02;1.58;;;11.00;99.90;;;;;;5126094;28;20090;-55
2023/11/08 07:11:17;;;;;;;6.13;1.50;;;10.80;99.90;;;;;;5126658;28;20087;-54
2023/11/08 07:13:44;;;;;;;10.45;1.60;;;10.60;99.90;;;;;;5126887;28;20330;-54
2023/11/08 07:16:10;;;;;;;13.00;2.80;;;10.40;99.90;;;;;;5127012;28;20019;-54
2023/11/08 07:18:35;;;;;;;17.77;2.95;;;10.40;99.90;;;;;;5126920;28;20104;-54
2023/11/08 07:21:01;;;;;;;13.93;2.53;;;10.30;99.90;;;;;;5125961;28;20080;-54
2023/11/08 07:23:27;;;;;;;15.02;2.22;;;10.30;99.90;;;;;;5109338;28;20073;-56
2023/11/08 07:25:52;;;;;;;13.63;1.88;;;10.30;99.90;;;;;;5126630;28;20040;-55
2023/11/08 07:28:18;;;;;;;13.30;2.08;;;10.30;99.90;;;;;;5126740;28;20086;-55
2023/11/08 07:30:45;;;;;;;12.43;2.97;;;10.40;99.90;;;;;;5126798;28;20031;-55
2023/11/08 07:33:11;;;;;;;12.07;2.33;;;10.40;99.90;;;;;;5126761;28;20088;-56
2023/11/08 07:35:38;;;;;;;10.68;2.00;;;10.40;99.90;;;;;;5125797;28;20344;-56
2023/11/08 07:38:04;;;;;;;12.45;1.67;;;10.40;99.90;;;;;;5126532;28;20046;-56
2023/11/08 07:40:30;;;;;;;17.15;3.67;;;10.40;99.90;;;;;;5126685;28;20038;-56
2023/11/08 07:42:55;;;;;;;15.23;2.25;;;10.50;99.90;;;;;;5126428;28;20064;-56
2023/11/08 07:45:21;;;;;;;15.05;2.33;;;10.50;99.90;;;;;;5126393;28;20028;-55
2023/11/08 07:47:47;;;;;;;19.45;2.20;;;10.50;99.90;;;;;;5125122;28;20223;-56
2023/11/08 07:50:14;;;;;;;14.73;2.10;;;10.50;99.90;;;;;;5126372;28;20020;-56
2023/11/08 07:52:42;;;;;;;15.40;2.90;;;10.50;99.90;;;;;;5126472;28;20281;-56
2023/11/08 07:55:11;;;;;;;10.07;2.13;;;10.50;99.90;;;;;;5126383;28;20050;-56
2023/11/08 07:57:39;;;;;;;10.87;2.20;;;10.50;99.90;;;;;;5126260;28;20023;-56
2023/11/08 08:00:08;;;;;;;9.80;2.30;;;10.50;99.90;;;;;;5126346;28;20019;-56
2023/11/08 08:02:34;;;;;;;9.63;2.07;;;10.50;99.90;;;;;;5126307;28;20028;-56
2023/11/08 08:04:59;;;;;;;14.63;2.20;;;10.50;99.90;;;;;;5125586;28;20096;-56
2023/11/08 08:07:27;;;;;;;13.75;2.72;;;10.50;99.90;;;;;;5125976;28;20327;-55
2023/11/08 08:09:54;;;;;;;16.90;2.63;;;10.50;99.90;;;;;;5125248;28;20297;-56
2023/11/08 08:12:19;;;;;;;16.35;2.13;;;10.50;99.90;;;;;;5125991;28;20027;-56
2023/11/08 08:14:45;;;;;;;10.25;1.75;;;10.50;99.90;;;;;;5127934;28;20353;-55
2023/11/08 08:17:12;;;;;;;13.38;2.05;;;10.50;99.90;;;;;;5132807;28;20292;-56
2023/11/08 08:19:38;;;;;;;11.40;2.03;;;10.50;99.90;;;;;;5132556;28;20039;-55
2023/11/08 08:22:04;;;;;;;11.55;2.10;;;10.50;99.90;;;;;;5131643;28;20087;-55
2023/11/08 08:24:30;;;;;;;10.55;1.85;;;10.50;99.90;;;;;;5132544;28;20027;-55
2023/11/08 08:26:56;;;;;;;16.15;1.88;;;10.50;99.90;;;;;;5132638;28;20019;-55
2023/11/08 08:29:24;;;;;;;10.15;1.48;;;10.50;99.90;;;;;;5132632;28;20038;-55
2023/11/08 08:31:50;;;;;;;11.88;1.92;;;10.50;99.90;;;;;;5131455;28;20035;-55
2023/11/08 08:34:16;;;;;;;15.18;2.65;;;10.50;99.90;;;;;;5132623;28;20023;-56
2023/11/08 08:36:41;;;;;;;12.43;1.60;;;10.40;99.90;;;;;;5131260;28;20020;-54
2023/11/08 08:39:07;;;;;;;10.85;1.90;;;10.40;99.90;;;;;;5131352;28;20059;-56
2023/11/08 08:41:33;;;;;;;6.50;1.70;;;10.40;99.90;;;;;;5132264;28;20023;-55
2023/11/08 08:43:58;;;;;;;8.90;1.67;;;10.40;99.90;;;;;;5132639;28;20099;-55
2023/11/08 08:46:24;;;;;;;10.30;1.60;;;10.40;99.90;;;;;;5132668;28;20042;-55
2023/11/08 08:48:51;;;;;;;10.27;1.80;;;10.30;99.90;;;;;;5132791;28;20038;-54
2023/11/08 08:51:17;;;;;;;7.88;1.42;;;10.40;99.90;;;;;;5132105;28;20020;-55
2023/11/08 08:53:42;;;;;;;9.82;2.03;;;10.30;99.90;;;;;;5131113;28;20231;-51
2023/11/08 08:56:10;;;;;;;11.57;2.17;;;10.40;99.90;;;;;;5132418;28;20030;-54
2023/11/08 08:58:36;;;;;;;10.13;1.55;;;10.30;99.90;;;;;;5132440;28;20028;-55
2023/11/08 09:01:02;;;;;;;11.65;2.10;;;10.30;99.90;;;;;;5131338;28;20041;-54
2023/11/08 09:03:27;;;;;;;9.32;1.70;;;10.30;99.90;;;;;;5131860;28;20038;-55
2023/11/08 09:05:53;;;;;;;15.68;2.20;;;10.40;99.90;;;;;;5132219;28;20023;-54
2023/11/08 09:08:19;;;;;;;6.80;1.95;;;10.40;99.90;;;;;;5131670;28;20200;-55
2023/11/08 09:10:46;;;;;;;14.50;2.22;;;10.40;99.90;;;;;;5131816;28;20088;-55
2023/11/08 09:13:13;;;;;;;10.98;2.03;;;10.40;99.90;;;;;;5132394;28;20064;-54
2023/11/08 09:15:39;;;;;;;8.15;2.10;;;10.40;99.90;;;;;;5132196;28;20084;-52
2023/11/08 09:18:04;;;;;;;12.75;2.17;;;10.40;99.90;;;;;;5132088;28;20024;-54
2023/11/08 09:20:30;;;;;;;11.18;2.10;;;10.40;99.90;;;;;;5132349;28;20058;-55
2023/11/08 09:22:56;;;;;;;12.65;2.05;;;10.40;99.90;;;;;;5131826;28;20031;-54
2023/11/08 09:25:22;;;;;;;15.60;2.83;;;10.40;99.90;;;;;;5131770;28;20185;-54
2023/11/08 09:27:47;;;;;;;11.07;1.80;;;10.40;99.90;;;;;;5127194;28;20244;-55
2023/11/08 09:30:13;;;;;;;13.43;2.85;;;10.40;99.90;;;;;;5127775;28;20038;-55
2023/11/08 09:32:39;;;;;;;14.55;2.75;;;10.40;99.90;;;;;;5128928;28;20031;-54
2023/11/08 09:35:06;;;;;;;13.85;2.47;;;10.40;99.90;;;;;;5129022;28;20051;-55
2023/11/08 09:37:32;;;;;;;13.45;2.80;;;10.50;99.90;;;;;;5128556;28;20258;-54
2023/11/08 09:39:58;;;;;;;11.52;2.40;;;10.50;99.90;;;;;;5128620;28;20088;-53
2023/11/08 09:42:26;;;;;;;15.90;3.22;;;10.50;99.90;;;;;;5128480;28;20300;-51
2023/11/08 09:44:52;;;;;;;20.40;2.78;;;10.50;99.90;;;;;;5127773;28;20034;-51
2023/11/08 09:47:17;;;;;;;24.35;3.58;;;10.50;99.90;;;;;;5127178;28;20035;-52
2023/11/08 09:49:54;;;;;;;19.55;2.88;;;10.50;99.90;;;;;;5128237;28;20031;-52
2023/11/08 09:52:20;;;;;;;14.68;2.60;;;10.50;99.90;;;;;;5127292;28;20039;-51
2023/11/08 09:54:45;;;;;;;18.92;3.08;;;10.60;99.90;;;;;;5127879;28;20028;-52
2023/11/08 09:57:11;;;;;;;19.05;2.50;;;10.70;99.90;;;;;;5128344;28;20108;-52
2023/11/08 09:59:37;;;;;;;24.20;3.47;;;10.80;99.90;;;;;;5127350;28;20031;-54
2023/11/08 10:02:05;;;;;;;17.08;3.17;;;10.80;99.90;;;;;;5127147;28;20165;-49
2023/11/08 10:04:30;;;;;;;20.60;4.13;;;10.90;99.90;;;;;;5127355;28;20103;-53
2023/11/08 10:06:56;;;;;;;16.48;3.55;;;11.00;99.90;;;;;;5127788;28;20059;-52
2023/11/08 10:09:31;;;;;;;16.08;2.95;;;10.90;99.90;;;;;;5127903;28;20094;-52
2023/11/08 10:12:00;;;;;;;14.05;2.88;;;10.90;99.90;;;;;;5127891;28;20028;-52
2023/11/08 10:14:33;;;;;;;19.65;2.67;;;10.80;99.90;;;;;;5110228;28;20319;-51
2023/11/08 10:17:00;;;;;;;16.10;3.30;;;10.80;99.90;;;;;;5127946;28;20202;-55
2023/11/08 10:19:42;;;;;;;23.30;4.05;;;10.80;99.90;;;;;;5127866;28;20080;-54
2023/11/08 10:22:20;;;;;;;16.70;2.70;;;10.90;99.90;;;;;;5127876;28;20027;-53
2023/11/08 10:25:02;;;;;;;18.33;3.03;;;10.90;99.90;;;;;;5127849;28;20035;-53
2023/11/08 10:27:29;;;;;;;18.15;3.15;;;11.00;99.90;;;;;;5126958;28;20201;-53
2023/11/08 10:30:18;;;;;;;17.15;3.53;;;11.10;99.90;;;;;;5126495;28;20174;-53
2023/11/08 10:32:44;;;;;;;10.85;2.72;;;11.20;99.90;;;;;;5127779;28;20089;-53
2023/11/08 10:35:18;;;;;;;14.55;2.47;;;11.30;99.90;;;;;;5127628;28;20044;-53
2023/11/08 10:37:43;;;;;;;15.63;2.45;;;11.50;99.90;;;;;;5126376;28;20027;-52
2023/11/08 10:40:12;;;;;;;17.00;2.83;;;11.60;99.90;;;;;;5109077;28;20024;-54
2023/11/08 10:42:38;;;;;;;17.33;2.88;;;11.70;99.90;;;;;;5127374;28;20058;-54
2023/11/08 10:45:08;;;;;;;13.65;2.42;;;11.80;99.90;;;;;;5108865;28;20023;-54
2023/11/08 10:47:37;;;;;;;13.95;3.67;;;11.90;99.90;;;;;;5126239;28;20072;-54
2023/11/08 10:50:05;;;;;;;10.38;2.28;;;12.00;99.90;;;;;;5109749;28;20107;-54
2023/11/08 10:52:37;;;;;;;13.38;2.10;;;12.00;99.90;;;;;;5109374;28;20055;-53
2023/11/08 10:55:06;;;;;;;12.95;2.50;;;12.00;99.90;;;;;;5125907;28;20027;-54
2023/11/08 10:57:33;;;;;;;12.10;2.28;;;11.90;99.90;;;;;;5126494;28;20090;-55
2023/11/08 11:00:04;;;;;;;14.55;2.30;;;11.90;99.90;;;;;;5125694;28;20016;-55
2023/11/08 11:02:41;;;;;;;21.05;3.20;;;11.90;99.90;;;;;;5126519;28;20342;-56
2023/11/08 11:05:08;;;;;;;14.38;2.60;;;12.00;99.90;;;;;;5127106;28;20032;-55
2023/11/08 11:07:38;;;;;;;15.63;2.53;;;12.30;99.90;;;;;;5126571;28;20066;-55
2023/11/08 11:10:04;;;;;;;14.85;2.38;;;12.50;99.90;;;;;;5109496;28;20027;-55
2023/11/08 11:13:04;;;;;;;17.63;3.22;;;12.70;99.90;;;;;;5125641;28;20043;-55
2023/11/08 11:15:36;;;;;;;18.60;3.28;;;12.90;99.90;;;;;;5126346;28;20031;-54
2023/11/08 11:18:02;;;;;;;20.08;3.00;;;12.90;99.40;;;;;;5126163;28;20023;-55
2023/11/08 11:20:34;;;;;;;16.52;2.63;;;13.00;98.00;;;;;;5108301;28;20031;-54
2023/11/08 11:23:01;;;;;;;21.60;3.40;;;13.20;97.20;;;;;;5126460;28;20177;-54
2023/11/08 11:25:46;;;;;;;9.95;1.80;;;13.40;95.90;;;;;;5126104;28;20043;-55
2023/11/08 11:28:12;;;;;;;17.10;2.60;;;13.40;94.50;;;;;;5126072;28;20024;-54
2023/11/08 11:30:37;;;;;;;15.32;3.05;;;13.30;95.20;;;;;;5125914;28;20038;-57
2023/11/08 11:33:04;;;;;;;11.18;2.35;;;13.50;96.50;;;;;;5125533;28;20027;-54
2023/11/08 11:35:30;;;;;;;17.88;2.47;;;13.60;95.90;;;;;;5126351;28;20319;-57
2023/11/08 11:38:13;;;;;;;15.48;3.20;;;13.90;93.50;;;;;;5126282;28;20027;-52
2023/11/08 11:40:41;;;;;;;12.65;2.63;;;14.30;90.70;;;;;;5126126;28;20112;-54
2023/11/08 11:43:32;;;;;;;12.88;2.88;;;15.00;85.40;;;;;;5126221;28;20115;-55
2023/11/08 11:45:59;;;;;;;12.68;2.90;;;15.60;75.00;;;;;;5126152;28;20023;-55
2023/11/08 11:48:27;;;;;;;14.45;3.00;;;15.80;71.60;;;;;;5125900;28;20087;-55
2023/11/08 11:50:54;;;;;;;9.85;2.58;;;15.30;69.10;;;;;;5124693;28;20031;-52
2023/11/08 11:53:19;;;;;;;12.82;2.60;;;15.30;64.10;;;;;;5125715;28;20269;-55
2023/11/08 11:55:45;;;;;;;10.30;2.28;;;15.30;69.40;;;;;;5126044;28;20031;-54
2023/11/08 11:58:11;;;;;;;13.27;2.67;;;15.30;64.20;;;;;;5126028;28;20012;-55
2023/11/08 12:00:37;;;;;;;11.93;5.95;;;15.70;59.90;;;;;;5126045;28;20051;-55
2023/11/08 12:03:04;;;;;;;14.77;3.90;;;16.10;59.40;;;;;;5125513;28;20032;-54
2023/11/08 12:05:30;;;;;;;11.55;2.30;;;16.70;53.90;;;;;;5124999;28;20043;-54
2023/11/08 12:07:56;;;;;;;7.93;2.40;;;17.10;50.70;;;;;;5124720;28;20321;-55
2023/11/08 12:10:26;;;;;;;13.10;2.20;;;17.20;44.00;;;;;;5125935;28;20039;-55
2023/11/08 12:12:53;;;;;;;18.10;3.95;;;16.80;45.60;;;;;;5125750;28;20107;-54
2023/11/08 12:15:22;;;;;;;20.77;11.82;;;17.10;47.30;;;;;;5125550;28;20020;-54
2023/11/08 12:17:56;;;;;;;12.50;3.35;;;16.90;40.10;;;;;;5125567;28;20023;-55
2023/11/08 12:20:26;;;;;;;10.05;2.33;;;16.20;44.60;;;;;;5125245;28;20020;-55
2023/11/08 12:22:52;;;;;;;13.30;2.80;;;15.70;48.70;;;;;;5124574;28;20069;-55
2023/11/08 12:25:21;;;;;;;19.50;5.13;;;15.90;49.40;;;;;;5125109;28;20272;-55
2023/11/08 12:27:55;;;;;;;13.32;4.53;;;16.40;48.80;;;;;;5125287;28;20082;-54
2023/11/08 12:30:23;;;;;;;14.57;2.50;;;16.80;45.20;;;;;;5125746;28;20024;-54
2023/11/08 12:32:49;;;;;;;8.43;2.13;;;16.10;49.20;;;;;;5124446;28;20035;-56
2023/11/08 12:35:15;;;;;;;14.85;3.75;;;15.50;49.70;;;;;;5124192;28;20281;-54
2023/11/08 12:37:41;;;;;;;10.77;2.30;;;15.60;53.30;;;;;;5124368;28;20243;-54
2023/11/08 12:40:21;;;;;;;17.33;2.88;;;15.50;52.20;;;;;;5124245;28;20146;-54
2023/11/08 12:42:46;;;;;;;;;;;14.90;54.20;;;;;;5126034;28;20043;-55
2023/11/08 12:45:27;;;;;;;11.38;2.67;;;14.40;55.50;;;;;;5124051;28;19914;-53